sensor_id;sensor_type;location;lat;lon;timestamp;temperature;humidity
65989;HTU21D;53592;51.402;6.054;2023-03-24T00:01:12;13.12;84.34
65989;HTU21D;53592;51.402;6.054;2023-03-24T00:03:38;13.17;84.34
65989;HTU21D;53592;51.402;6.054;2023-03-24T00:06:05;13.17;84.31
65989;HTU21D;53592;51.402;6.054;2023-03-24T00:08:34;13.17;84.45
65989;HTU21D;53592;51.402;6.054;2023-03-24T00:11:02;13.18;84.61
65989;HTU21D;53592;51.402;6.054;2023-03-24T00:13:31;13.25;84.13
65989;HTU21D;53592;51.402;6.054;2023-03-24T00:16:03;13.24;84.15
65989;HTU21D;53592;51.402;6.054;2023-03-24T00:18:29;13.22;84.39
65989;HTU21D;53592;51.402;6.054;2023-03-24T00:20:54;13.20;84.64
65989;HTU21D;53592;51.402;6.054;2023-03-24T00:23:27;13.24;84.46
65989;HTU21D;53592;51.402;6.054;2023-03-24T00:26:06;13.22;84.70
65989;HTU21D;53592;51.402;6.054;2023-03-24T00:28:35;13.25;84.48
65989;HTU21D;53592;51.402;6.054;2023-03-24T00:31:03;13.25;84.65
65989;HTU21D;53592;51.402;6.054;2023-03-24T00:33:29;13.22;84.80
65989;HTU21D;53592;51.402;6.054;2023-03-24T00:36:04;13.24;84.72
65989;HTU21D;53592;51.402;6.054;2023-03-24T00:38:30;13.24;84.93
65989;HTU21D;53592;51.402;6.054;2023-03-24T00:40:56;13.29;84.74
65989;HTU21D;53592;51.402;6.054;2023-03-24T00:43:23;13.24;84.90
65989;HTU21D;53592;51.402;6.054;2023-03-24T00:45:49;13.26;84.97
65989;HTU21D;53592;51.402;6.054;2023-03-24T00:48:17;13.23;84.98
65989;HTU21D;53592;51.402;6.054;2023-03-24T00:50:49;13.26;84.87
65989;HTU21D;53592;51.402;6.054;2023-03-24T00:53:15;13.22;85.02
65989;HTU21D;53592;51.402;6.054;2023-03-24T00:55:42;13.21;85.13
65989;HTU21D;53592;51.402;6.054;2023-03-24T00:58:13;13.27;84.68
65989;HTU21D;53592;51.402;6.054;2023-03-24T01:00:54;13.31;84.80
65989;HTU21D;53592;51.402;6.054;2023-03-24T01:03:21;13.27;84.87
65989;HTU21D;53592;51.402;6.054;2023-03-24T01:05:51;13.34;84.78
65989;HTU21D;53592;51.402;6.054;2023-03-24T01:08:18;13.33;84.70
65989;HTU21D;53592;51.402;6.054;2023-03-24T01:10:47;13.36;84.68
65989;HTU21D;53592;51.402;6.054;2023-03-24T01:13:23;13.30;85.03
65989;HTU21D;53592;51.402;6.054;2023-03-24T01:15:50;13.34;85.13
65989;HTU21D;53592;51.402;6.054;2023-03-24T01:18:16;13.31;85.13
65989;HTU21D;53592;51.402;6.054;2023-03-24T01:20:43;13.30;85.06
65989;HTU21D;53592;51.402;6.054;2023-03-24T01:23:12;13.30;85.19
65989;HTU21D;53592;51.402;6.054;2023-03-24T01:25:40;13.31;85.36
65989;HTU21D;53592;51.402;6.054;2023-03-24T01:28:14;13.38;84.97
65989;HTU21D;53592;51.402;6.054;2023-03-24T01:30:39;13.45;84.67
65989;HTU21D;53592;51.402;6.054;2023-03-24T01:33:05;13.43;84.77
65989;HTU21D;53592;51.402;6.054;2023-03-24T01:35:31;13.43;84.97
65989;HTU21D;53592;51.402;6.054;2023-03-24T01:37:58;13.36;85.30
65989;HTU21D;53592;51.402;6.054;2023-03-24T01:40:27;13.40;85.06
65989;HTU21D;53592;51.402;6.054;2023-03-24T01:42:53;13.45;84.83
65989;HTU21D;53592;51.402;6.054;2023-03-24T01:48:05;13.41;85.13
65989;HTU21D;53592;51.402;6.054;2023-03-24T01:50:32;13.41;85.33
65989;HTU21D;53592;51.402;6.054;2023-03-24T01:52:59;13.43;85.22
65989;HTU21D;53592;51.402;6.054;2023-03-24T01:55:27;13.43;85.34
65989;HTU21D;53592;51.402;6.054;2023-03-24T01:57:58;13.43;85.16
65989;HTU21D;53592;51.402;6.054;2023-03-24T02:00:25;13.45;85.51
65989;HTU21D;53592;51.402;6.054;2023-03-24T02:02:57;13.43;85.71
65989;HTU21D;53592;51.402;6.054;2023-03-24T02:05:34;13.46;85.52
65989;HTU21D;53592;51.402;6.054;2023-03-24T02:08:09;13.47;85.61
65989;HTU21D;53592;51.402;6.054;2023-03-24T02:10:37;13.40;85.82
65989;HTU21D;53592;51.402;6.054;2023-03-24T02:13:04;13.40;85.84
65989;HTU21D;53592;51.402;6.054;2023-03-24T02:15:34;13.41;85.85
65989;HTU21D;53592;51.402;6.054;2023-03-24T02:33:03;13.49;85.29
65989;HTU21D;53592;51.402;6.054;2023-03-24T02:39:06;13.63;84.48
65989;HTU21D;53592;51.402;6.054;2023-03-24T02:41:38;13.64;84.41
65989;HTU21D;53592;51.402;6.054;2023-03-24T02:44:11;13.73;83.94
65989;HTU21D;53592;51.402;6.054;2023-03-24T02:47:00;13.70;84.00
65989;HTU21D;53592;51.402;6.054;2023-03-24T02:52:28;13.66;83.82
65989;HTU21D;53592;51.402;6.054;2023-03-24T02:55:08;13.71;83.57
65989;HTU21D;53592;51.402;6.054;2023-03-24T02:57:44;13.75;83.55
65989;HTU21D;53592;51.402;6.054;2023-03-24T03:02:45;13.79;82.96
65989;HTU21D;53592;51.402;6.054;2023-03-24T03:05:41;0.00;83.18
65989;HTU21D;53592;51.402;6.054;2023-03-24T03:08:12;13.73;83.06
65989;HTU21D;53592;51.402;6.054;2023-03-24T03:10:43;13.74;83.13
65989;HTU21D;53592;51.402;6.054;2023-03-24T03:13:18;13.85;82.54
65989;HTU21D;53592;51.402;6.054;2023-03-24T03:15:50;13.88;82.40
65989;HTU21D;53592;51.402;6.054;2023-03-24T03:18:19;13.89;82.30
65989;HTU21D;53592;51.402;6.054;2023-03-24T03:20:51;13.80;82.93
65989;HTU21D;53592;51.402;6.054;2023-03-24T03:23:34;13.89;82.67
65989;HTU21D;53592;51.402;6.054;2023-03-24T03:26:04;13.92;82.56
65989;HTU21D;53592;51.402;6.054;2023-03-24T03:28:39;13.88;82.71
65989;HTU21D;53592;51.402;6.054;2023-03-24T03:31:15;13.83;82.97
65989;HTU21D;53592;51.402;6.054;2023-03-24T03:33:52;13.81;82.93
65989;HTU21D;53592;51.402;6.054;2023-03-24T03:36:34;13.81;82.97
65989;HTU21D;53592;51.402;6.054;2023-03-24T03:39:13;13.79;83.14
65989;HTU21D;53592;51.402;6.054;2023-03-24T03:41:41;13.80;83.32
65989;HTU21D;53592;51.402;6.054;2023-03-24T03:44:08;13.78;83.30
65989;HTU21D;53592;51.402;6.054;2023-03-24T03:46:34;13.75;83.38
65989;HTU21D;53592;51.402;6.054;2023-03-24T03:49:01;13.73;83.40
65989;HTU21D;53592;51.402;6.054;2023-03-24T03:51:26;13.74;83.41
65989;HTU21D;53592;51.402;6.054;2023-03-24T03:53:59;13.69;83.52
65989;HTU21D;53592;51.402;6.054;2023-03-24T03:56:32;13.67;83.28
65989;HTU21D;53592;51.402;6.054;2023-03-24T03:58:58;13.63;83.07
65989;HTU21D;53592;51.402;6.054;2023-03-24T04:01:27;13.59;82.93
65989;HTU21D;53592;51.402;6.054;2023-03-24T04:06:35;13.51;81.89
65989;HTU21D;53592;51.402;6.054;2023-03-24T04:09:28;13.48;81.76
65989;HTU21D;53592;51.402;6.054;2023-03-24T04:12:07;13.43;81.45
65989;HTU21D;53592;51.402;6.054;2023-03-24T04:14:39;13.38;81.43
65989;HTU21D;53592;51.402;6.054;2023-03-24T04:17:31;13.39;80.94
65989;HTU21D;53592;51.402;6.054;2023-03-24T04:20:13;13.30;81.22
65989;HTU21D;53592;51.402;6.054;2023-03-24T04:23:07;13.23;79.58
65989;HTU21D;53592;51.402;6.054;2023-03-24T04:26:08;13.16;79.40
65989;HTU21D;53592;51.402;6.054;2023-03-24T04:32:01;13.06;79.00
65989;HTU21D;53592;51.402;6.054;2023-03-24T04:34:39;12.96;78.45
65989;HTU21D;53592;51.402;6.054;2023-03-24T04:37:14;12.88;78.32
65989;HTU21D;53592;51.402;6.054;2023-03-24T04:39:45;12.84;78.16
65989;HTU21D;53592;51.402;6.054;2023-03-24T04:42:20;12.75;78.02
65989;HTU21D;53592;51.402;6.054;2023-03-24T04:44:48;12.63;78.20
65989;HTU21D;53592;51.402;6.054;2023-03-24T04:47:20;12.58;77.97
65989;HTU21D;53592;51.402;6.054;2023-03-24T04:49:47;12.48;77.57
65989;HTU21D;53592;51.402;6.054;2023-03-24T04:52:13;12.40;76.98
65989;HTU21D;53592;51.402;6.054;2023-03-24T04:54:38;12.30;77.62
65989;HTU21D;53592;51.402;6.054;2023-03-24T04:57:04;12.21;77.43
65989;HTU21D;53592;51.402;6.054;2023-03-24T04:59:30;12.12;77.34
65989;HTU21D;53592;51.402;6.054;2023-03-24T05:02:02;12.06;77.34
65989;HTU21D;53592;51.402;6.054;2023-03-24T05:04:28;12.04;77.18
65989;HTU21D;53592;51.402;6.054;2023-03-24T05:06:55;12.01;76.91
65989;HTU21D;53592;51.402;6.054;2023-03-24T05:09:22;11.94;76.85
65989;HTU21D;53592;51.402;6.054;2023-03-24T05:11:48;11.91;76.49
65989;HTU21D;53592;51.402;6.054;2023-03-24T05:14:15;11.89;76.73
65989;HTU21D;53592;51.402;6.054;2023-03-24T05:16:41;11.90;76.74
65989;HTU21D;53592;51.402;6.054;2023-03-24T05:19:07;11.89;76.57
65989;HTU21D;53592;51.402;6.054;2023-03-24T05:21:33;11.89;76.77
65989;HTU21D;53592;51.402;6.054;2023-03-24T05:23:58;11.88;76.73
65989;HTU21D;53592;51.402;6.054;2023-03-24T05:26:24;11.89;76.63
65989;HTU21D;53592;51.402;6.054;2023-03-24T05:28:51;11.82;76.41
65989;HTU21D;53592;51.402;6.054;2023-03-24T05:31:17;11.76;76.44
65989;HTU21D;53592;51.402;6.054;2023-03-24T05:33:43;11.73;76.16
65989;HTU21D;53592;51.402;6.054;2023-03-24T05:36:09;11.68;76.31
65989;HTU21D;53592;51.402;6.054;2023-03-24T05:38:34;11.63;76.36
65989;HTU21D;53592;51.402;6.054;2023-03-24T05:41:00;11.58;76.38
65989;HTU21D;53592;51.402;6.054;2023-03-24T05:43:26;11.56;76.45
65989;HTU21D;53592;51.402;6.054;2023-03-24T05:45:52;11.54;76.44
65989;HTU21D;53592;51.402;6.054;2023-03-24T05:48:18;11.48;76.68
65989;HTU21D;53592;51.402;6.054;2023-03-24T05:50:44;11.45;76.73
65989;HTU21D;53592;51.402;6.054;2023-03-24T05:53:09;11.42;76.89
65989;HTU21D;53592;51.402;6.054;2023-03-24T05:55:35;11.38;77.03
65989;HTU21D;53592;51.402;6.054;2023-03-24T05:58:01;11.37;77.11
65989;HTU21D;53592;51.402;6.054;2023-03-24T06:00:28;11.31;77.23
65989;HTU21D;53592;51.402;6.054;2023-03-24T06:02:55;11.30;77.37
65989;HTU21D;53592;51.402;6.054;2023-03-24T06:05:20;11.29;77.35
65989;HTU21D;53592;51.402;6.054;2023-03-24T06:07:46;11.26;77.12
65989;HTU21D;53592;51.402;6.054;2023-03-24T06:10:11;11.25;77.37
65989;HTU21D;53592;51.402;6.054;2023-03-24T06:12:39;11.23;77.49
65989;HTU21D;53592;51.402;6.054;2023-03-24T06:15:05;11.24;77.40
65989;HTU21D;53592;51.402;6.054;2023-03-24T06:17:32;11.26;77.37
65989;HTU21D;53592;51.402;6.054;2023-03-24T06:19:58;11.27;77.35
65989;HTU21D;53592;51.402;6.054;2023-03-24T06:22:28;11.29;77.07
65989;HTU21D;53592;51.402;6.054;2023-03-24T06:24:54;11.32;77.04
65989;HTU21D;53592;51.402;6.054;2023-03-24T06:27:23;11.38;77.26
65989;HTU21D;53592;51.402;6.054;2023-03-24T06:29:55;11.48;77.36
65989;HTU21D;53592;51.402;6.054;2023-03-24T06:32:20;11.57;76.79
65989;HTU21D;53592;51.402;6.054;2023-03-24T06:34:46;11.64;75.89
65989;HTU21D;53592;51.402;6.054;2023-03-24T06:37:12;11.74;75.30
65989;HTU21D;53592;51.402;6.054;2023-03-24T06:39:37;11.86;75.01
65989;HTU21D;53592;51.402;6.054;2023-03-24T06:42:03;11.97;74.56
65989;HTU21D;53592;51.402;6.054;2023-03-24T06:44:29;12.05;74.55
65989;HTU21D;53592;51.402;6.054;2023-03-24T06:46:55;12.17;74.25
65989;HTU21D;53592;51.402;6.054;2023-03-24T06:49:20;12.31;73.97
65989;HTU21D;53592;51.402;6.054;2023-03-24T06:51:46;12.45;73.12
65989;HTU21D;53592;51.402;6.054;2023-03-24T06:54:12;12.49;72.59
65989;HTU21D;53592;51.402;6.054;2023-03-24T06:56:37;12.55;72.66
65989;HTU21D;53592;51.402;6.054;2023-03-24T06:59:03;12.65;72.16
65989;HTU21D;53592;51.402;6.054;2023-03-24T07:01:29;12.73;71.44
65989;HTU21D;53592;51.402;6.054;2023-03-24T07:03:54;12.75;72.00
65989;HTU21D;53592;51.402;6.054;2023-03-24T07:06:21;12.84;71.61
65989;HTU21D;53592;51.402;6.054;2023-03-24T07:08:48;12.93;70.78
65989;HTU21D;53592;51.402;6.054;2023-03-24T07:11:14;12.90;70.87
65989;HTU21D;53592;51.402;6.054;2023-03-24T07:13:40;12.86;70.45
65989;HTU21D;53592;51.402;6.054;2023-03-24T07:16:06;12.80;70.66
65989;HTU21D;53592;51.402;6.054;2023-03-24T07:18:32;12.81;70.37
65989;HTU21D;53592;51.402;6.054;2023-03-24T07:20:58;12.87;70.17
65989;HTU21D;53592;51.402;6.054;2023-03-24T07:23:23;12.94;70.04
65989;HTU21D;53592;51.402;6.054;2023-03-24T07:25:52;13.04;70.11
65989;HTU21D;53592;51.402;6.054;2023-03-24T07:28:17;13.19;69.65
65989;HTU21D;53592;51.402;6.054;2023-03-24T07:30:43;13.41;69.07
65989;HTU21D;53592;51.402;6.054;2023-03-24T07:33:09;13.56;68.93
65989;HTU21D;53592;51.402;6.054;2023-03-24T07:35:37;13.77;68.68
65989;HTU21D;53592;51.402;6.054;2023-03-24T07:38:03;13.98;67.91
65989;HTU21D;53592;51.402;6.054;2023-03-24T07:40:28;14.20;66.14
65989;HTU21D;53592;51.402;6.054;2023-03-24T07:42:58;14.24;66.49
65989;HTU21D;53592;51.402;6.054;2023-03-24T07:45:24;14.39;67.10
65989;HTU21D;53592;51.402;6.054;2023-03-24T07:47:50;14.54;66.59
65989;HTU21D;53592;51.402;6.054;2023-03-24T07:50:16;14.70;66.23
65989;HTU21D;53592;51.402;6.054;2023-03-24T07:56:34;14.74;65.59
65989;HTU21D;53592;51.402;6.054;2023-03-24T07:58:59;14.73;64.75
65989;HTU21D;53592;51.402;6.054;2023-03-24T08:05:16;14.59;65.57
65989;HTU21D;53592;51.402;6.054;2023-03-24T08:11:01;14.85;65.23
65989;HTU21D;53592;51.402;6.054;2023-03-24T08:13:27;14.98;65.13
65989;HTU21D;53592;51.402;6.054;2023-03-24T08:16:05;15.03;64.26
65989;HTU21D;53592;51.402;6.054;2023-03-24T08:18:46;15.07;64.68
65989;HTU21D;53592;51.402;6.054;2023-03-24T08:21:23;15.19;64.20
65989;HTU21D;53592;51.402;6.054;2023-03-24T08:24:13;15.39;64.02
65989;HTU21D;53592;51.402;6.054;2023-03-24T08:53:02;15.58;62.63
65989;HTU21D;53592;51.402;6.054;2023-03-24T08:55:48;15.42;62.53
65989;HTU21D;53592;51.402;6.054;2023-03-24T08:58:16;15.18;62.16
65989;HTU21D;53592;51.402;6.054;2023-03-24T09:03:56;14.92;64.30
65989;HTU21D;53592;51.402;6.054;2023-03-24T09:06:22;14.94;64.37
65989;HTU21D;53592;51.402;6.054;2023-03-24T09:08:47;14.97;63.98
65989;HTU21D;53592;51.402;6.054;2023-03-24T09:11:36;15.11;63.73
65989;HTU21D;53592;51.402;6.054;2023-03-24T09:14:22;15.11;63.30
65989;HTU21D;53592;51.402;6.054;2023-03-24T09:20:34;14.97;63.08
65989;HTU21D;53592;51.402;6.054;2023-03-24T09:23:08;14.92;63.02
65989;HTU21D;53592;51.402;6.054;2023-03-24T09:28:55;14.84;63.59
65989;HTU21D;53592;51.402;6.054;2023-03-24T09:41:28;15.52;60.59
65989;HTU21D;53592;51.402;6.054;2023-03-24T09:47:35;15.66;58.42
65989;HTU21D;53592;51.402;6.054;2023-03-24T10:00:23;15.07;59.51
65989;HTU21D;53592;51.402;6.054;2023-03-24T10:02:50;14.89;60.02
65989;HTU21D;53592;51.402;6.054;2023-03-24T10:05:25;14.71;61.05
65989;HTU21D;53592;51.402;6.054;2023-03-24T10:08:04;14.57;61.67
65989;HTU21D;53592;51.402;6.054;2023-03-24T10:13:08;14.52;62.48
65989;HTU21D;53592;51.402;6.054;2023-03-24T10:15:51;14.55;62.05
65989;HTU21D;53592;51.402;6.054;2023-03-24T10:19:01;14.42;62.95
65989;HTU21D;53592;51.402;6.054;2023-03-24T10:21:26;14.40;63.05
65989;HTU21D;53592;51.402;6.054;2023-03-24T10:27:29;14.45;64.18
65989;HTU21D;53592;51.402;6.054;2023-03-24T10:30:07;14.49;64.21
65989;HTU21D;53592;51.402;6.054;2023-03-24T10:32:37;14.53;64.12
65989;HTU21D;53592;51.402;6.054;2023-03-24T10:35:06;14.58;63.91
65989;HTU21D;53592;51.402;6.054;2023-03-24T10:37:35;14.57;63.60
65989;HTU21D;53592;51.402;6.054;2023-03-24T10:40:01;14.57;63.35
65989;HTU21D;53592;51.402;6.054;2023-03-24T10:42:33;14.52;63.44
65989;HTU21D;53592;51.402;6.054;2023-03-24T10:44:59;14.51;62.66
65989;HTU21D;53592;51.402;6.054;2023-03-24T10:47:29;14.50;63.43
65989;HTU21D;53592;51.402;6.054;2023-03-24T10:50:05;14.48;62.59
65989;HTU21D;53592;51.402;6.054;2023-03-24T10:52:43;14.39;62.55
65989;HTU21D;53592;51.402;6.054;2023-03-24T10:55:16;14.38;62.53
65989;HTU21D;53592;51.402;6.054;2023-03-24T10:57:45;14.40;62.60
65989;HTU21D;53592;51.402;6.054;2023-03-24T11:00:25;14.39;61.75
65989;HTU21D;53592;51.402;6.054;2023-03-24T11:03:04;14.37;62.37
65989;HTU21D;53592;51.402;6.054;2023-03-24T11:05:37;14.41;62.59
65989;HTU21D;53592;51.402;6.054;2023-03-24T11:10:53;14.45;62.33
65989;HTU21D;53592;51.402;6.054;2023-03-24T11:18:33;14.70;62.79
65989;HTU21D;53592;51.402;6.054;2023-03-24T11:21:01;14.77;62.80
65989;HTU21D;53592;51.402;6.054;2023-03-24T11:23:40;14.92;63.13
65989;HTU21D;53592;51.402;6.054;2023-03-24T11:26:30;15.16;63.53
65989;HTU21D;53592;51.402;6.054;2023-03-24T11:29:00;15.41;61.92
65989;HTU21D;53592;51.402;6.054;2023-03-24T11:31:28;15.41;59.48
65989;HTU21D;53592;51.402;6.054;2023-03-24T11:34:01;15.36;58.70
65989;HTU21D;53592;51.402;6.054;2023-03-24T11:39:10;15.19;60.52
65989;HTU21D;53592;51.402;6.054;2023-03-24T11:41:40;15.15;60.39
65989;HTU21D;53592;51.402;6.054;2023-03-24T11:44:24;15.07;60.42
65989;HTU21D;53592;51.402;6.054;2023-03-24T11:46:55;15.01;60.24
65989;HTU21D;53592;51.402;6.054;2023-03-24T11:49:26;14.93;60.12
65989;HTU21D;53592;51.402;6.054;2023-03-24T11:51:54;14.89;59.91
65989;HTU21D;53592;51.402;6.054;2023-03-24T11:54:25;14.84;60.38
65989;HTU21D;53592;51.402;6.054;2023-03-24T11:56:58;14.86;60.57
65989;HTU21D;53592;51.402;6.054;2023-03-24T11:59:32;14.87;61.01
65989;HTU21D;53592;51.402;6.054;2023-03-24T12:05:09;14.75;60.60
65989;HTU21D;53592;51.402;6.054;2023-03-24T12:07:52;14.72;61.47
65989;HTU21D;53592;51.402;6.054;2023-03-24T12:10:42;14.83;60.54
65989;HTU21D;53592;51.402;6.054;2023-03-24T12:13:13;14.84;60.06
65989;HTU21D;53592;51.402;6.054;2023-03-24T12:15:52;14.84;60.27
65989;HTU21D;53592;51.402;6.054;2023-03-24T12:21:29;14.81;60.51
65989;HTU21D;53592;51.402;6.054;2023-03-24T12:24:22;14.82;58.73
65989;HTU21D;53592;51.402;6.054;2023-03-24T12:26:57;14.86;60.02
65989;HTU21D;53592;51.402;6.054;2023-03-24T12:38:29;15.47;61.12
65989;HTU21D;53592;51.402;6.054;2023-03-24T12:43:46;16.03;57.64
65989;HTU21D;53592;51.402;6.054;2023-03-24T12:54:07;15.85;58.35
65989;HTU21D;53592;51.402;6.054;2023-03-24T12:56:44;15.85;58.09
65989;HTU21D;53592;51.402;6.054;2023-03-24T12:59:18;15.67;58.77
65989;HTU21D;53592;51.402;6.054;2023-03-24T13:01:51;15.39;61.48
65989;HTU21D;53592;51.402;6.054;2023-03-24T13:04:31;15.07;62.79
65989;HTU21D;53592;51.402;6.054;2023-03-24T13:07:07;14.72;64.21
65989;HTU21D;53592;51.402;6.054;2023-03-24T13:12:36;14.47;66.59
65989;HTU21D;53592;51.402;6.054;2023-03-24T13:15:17;14.34;67.13
65989;HTU21D;53592;51.402;6.054;2023-03-24T13:20:39;14.06;68.42
65989;HTU21D;53592;51.402;6.054;2023-03-24T13:34:47;12.88;73.73
65989;HTU21D;53592;51.402;6.054;2023-03-24T13:37:24;12.81;73.96
65989;HTU21D;53592;51.402;6.054;2023-03-24T13:39:56;12.82;75.14
65989;HTU21D;53592;51.402;6.054;2023-03-24T13:42:35;12.95;77.51
65989;HTU21D;53592;51.402;6.054;2023-03-24T13:45:05;13.14;77.19
65989;HTU21D;53592;51.402;6.054;2023-03-24T13:47:48;13.34;77.44
65989;HTU21D;53592;51.402;6.054;2023-03-24T13:50:16;13.46;77.34
65989;HTU21D;53592;51.402;6.054;2023-03-24T13:52:48;13.55;76.43
65989;HTU21D;53592;51.402;6.054;2023-03-24T13:55:18;13.62;75.60
65989;HTU21D;53592;51.402;6.054;2023-03-24T13:57:59;13.61;75.34
65989;HTU21D;53592;51.402;6.054;2023-03-24T14:00:28;13.63;75.18
65989;HTU21D;53592;51.402;6.054;2023-03-24T14:03:11;13.64;74.74
65989;HTU21D;53592;51.402;6.054;2023-03-24T14:05:58;13.67;74.44
65989;HTU21D;53592;51.402;6.054;2023-03-24T14:11:39;13.65;73.91
65989;HTU21D;53592;51.402;6.054;2023-03-24T14:14:16;13.61;74.08
65989;HTU21D;53592;51.402;6.054;2023-03-24T14:16:49;13.54;74.28
65989;HTU21D;53592;51.402;6.054;2023-03-24T14:19:20;13.48;74.44
65989;HTU21D;53592;51.402;6.054;2023-03-24T14:24:27;13.29;75.23
65989;HTU21D;53592;51.402;6.054;2023-03-24T14:26:53;13.21;76.10
65989;HTU21D;53592;51.402;6.054;2023-03-24T14:29:38;13.31;78.14
65989;HTU21D;53592;51.402;6.054;2023-03-24T14:32:04;13.36;78.54
65989;HTU21D;53592;51.402;6.054;2023-03-24T14:34:31;13.48;78.56
65989;HTU21D;53592;51.402;6.054;2023-03-24T14:37:03;13.60;78.42
65989;HTU21D;53592;51.402;6.054;2023-03-24T14:39:42;13.65;77.61
65989;HTU21D;53592;51.402;6.054;2023-03-24T14:45:02;13.64;76.65
65989;HTU21D;53592;51.402;6.054;2023-03-24T14:47:31;13.55;76.73
65989;HTU21D;53592;51.402;6.054;2023-03-24T14:50:00;13.43;77.20
65989;HTU21D;53592;51.402;6.054;2023-03-24T14:52:33;13.33;77.53
65989;HTU21D;53592;51.402;6.054;2023-03-24T14:55:04;13.18;77.95
65989;HTU21D;53592;51.402;6.054;2023-03-24T14:57:37;13.03;78.14
65989;HTU21D;53592;51.402;6.054;2023-03-24T15:00:34;12.90;78.35
65989;HTU21D;53592;51.402;6.054;2023-03-24T15:05:43;12.87;79.29
65989;HTU21D;53592;51.402;6.054;2023-03-24T15:08:17;12.92;80.49
65989;HTU21D;53592;51.402;6.054;2023-03-24T15:10:47;13.00;80.82
65989;HTU21D;53592;51.402;6.054;2023-03-24T15:16:19;13.20;79.59
65989;HTU21D;53592;51.402;6.054;2023-03-24T15:18:54;13.23;78.93
65989;HTU21D;53592;51.402;6.054;2023-03-24T15:21:35;13.21;78.71
65989;HTU21D;53592;51.402;6.054;2023-03-24T15:26:45;13.32;76.86
65989;HTU21D;53592;51.402;6.054;2023-03-24T15:29:11;13.24;78.01
65989;HTU21D;53592;51.402;6.054;2023-03-24T15:31:37;13.21;77.64
65989;HTU21D;53592;51.402;6.054;2023-03-24T15:36:53;13.24;77.96
65989;HTU21D;53592;51.402;6.054;2023-03-24T15:39:25;13.33;78.08
65989;HTU21D;53592;51.402;6.054;2023-03-24T15:41:51;13.43;78.10
65989;HTU21D;53592;51.402;6.054;2023-03-24T15:44:20;13.50;77.10
65989;HTU21D;53592;51.402;6.054;2023-03-24T15:46:48;13.62;74.99
65989;HTU21D;53592;51.402;6.054;2023-03-24T15:49:26;13.64;74.81
65989;HTU21D;53592;51.402;6.054;2023-03-24T15:52:00;13.67;74.96
65989;HTU21D;53592;51.402;6.054;2023-03-24T15:54:39;13.71;74.76
65989;HTU21D;53592;51.402;6.054;2023-03-24T15:57:16;13.76;73.89
65989;HTU21D;53592;51.402;6.054;2023-03-24T16:00:02;13.81;72.79
65989;HTU21D;53592;51.402;6.054;2023-03-24T16:02:55;13.82;72.98
65989;HTU21D;53592;51.402;6.054;2023-03-24T16:05:28;13.93;71.97
65989;HTU21D;53592;51.402;6.054;2023-03-24T16:08:03;13.93;71.67
65989;HTU21D;53592;51.402;6.054;2023-03-24T16:10:36;13.92;70.37
65989;HTU21D;53592;51.402;6.054;2023-03-24T16:13:16;13.85;71.07
65989;HTU21D;53592;51.402;6.054;2023-03-24T16:18:42;13.80;69.55
65989;HTU21D;53592;51.402;6.054;2023-03-24T16:21:13;13.64;69.51
65989;HTU21D;53592;51.402;6.054;2023-03-24T16:23:39;13.61;69.84
65989;HTU21D;53592;51.402;6.054;2023-03-24T16:26:25;13.54;70.64
65989;HTU21D;53592;51.402;6.054;2023-03-24T16:28:52;13.53;69.94
65989;HTU21D;53592;51.402;6.054;2023-03-24T16:31:25;13.45;70.69
65989;HTU21D;53592;51.402;6.054;2023-03-24T16:33:52;13.40;71.00
65989;HTU21D;53592;51.402;6.054;2023-03-24T16:36:19;13.37;70.81
65989;HTU21D;53592;51.402;6.054;2023-03-24T16:38:51;13.41;70.56
65989;HTU21D;53592;51.402;6.054;2023-03-24T16:41:17;13.37;70.71
65989;HTU21D;53592;51.402;6.054;2023-03-24T16:43:44;13.36;70.78
65989;HTU21D;53592;51.402;6.054;2023-03-24T16:48:51;13.33;71.25
65989;HTU21D;53592;51.402;6.054;2023-03-24T16:51:17;13.35;71.13
65989;HTU21D;53592;51.402;6.054;2023-03-24T16:53:45;13.30;71.38
65989;HTU21D;53592;51.402;6.054;2023-03-24T16:56:16;13.33;71.19
65989;HTU21D;53592;51.402;6.054;2023-03-24T16:58:42;13.26;71.29
65989;HTU21D;53592;51.402;6.054;2023-03-24T17:01:17;13.22;71.32
65989;HTU21D;53592;51.402;6.054;2023-03-24T17:03:56;13.16;71.32
65989;HTU21D;53592;51.402;6.054;2023-03-24T17:06:24;13.12;71.39
65989;HTU21D;53592;51.402;6.054;2023-03-24T17:08:50;13.08;71.86
65989;HTU21D;53592;51.402;6.054;2023-03-24T17:11:24;13.03;71.80
65989;HTU21D;53592;51.402;6.054;2023-03-24T17:13:50;13.03;71.51
65989;HTU21D;53592;51.402;6.054;2023-03-24T17:16:16;12.95;71.36
65989;HTU21D;53592;51.402;6.054;2023-03-24T17:18:42;12.95;71.58
65989;HTU21D;53592;51.402;6.054;2023-03-24T17:21:17;12.87;71.98
65989;HTU21D;53592;51.402;6.054;2023-03-24T17:23:44;12.87;71.61
65989;HTU21D;53592;51.402;6.054;2023-03-24T17:26:14;12.80;71.55
65989;HTU21D;53592;51.402;6.054;2023-03-24T17:28:41;12.79;71.22
65989;HTU21D;53592;51.402;6.054;2023-03-24T17:31:07;12.77;71.35
65989;HTU21D;53592;51.402;6.054;2023-03-24T17:33:32;12.73;71.19
65989;HTU21D;53592;51.402;6.054;2023-03-24T17:35:58;12.73;71.22
65989;HTU21D;53592;51.402;6.054;2023-03-24T17:38:23;12.71;71.32
65989;HTU21D;53592;51.402;6.054;2023-03-24T17:40:59;12.65;71.44
65989;HTU21D;53592;51.402;6.054;2023-03-24T17:43:25;12.66;71.32
65989;HTU21D;53592;51.402;6.054;2023-03-24T17:45:57;12.64;71.32
65989;HTU21D;53592;51.402;6.054;2023-03-24T17:48:23;12.65;71.43
65989;HTU21D;53592;51.402;6.054;2023-03-24T17:50:49;12.56;71.62
65989;HTU21D;53592;51.402;6.054;2023-03-24T17:53:14;12.61;71.35
65989;HTU21D;53592;51.402;6.054;2023-03-24T17:55:41;12.58;71.47
65989;HTU21D;53592;51.402;6.054;2023-03-24T17:58:07;12.52;71.58
65989;HTU21D;53592;51.402;6.054;2023-03-24T18:00:33;12.55;71.46
65989;HTU21D;53592;51.402;6.054;2023-03-24T18:02:58;12.52;71.58
65989;HTU21D;53592;51.402;6.054;2023-03-24T18:05:25;12.47;71.81
65989;HTU21D;53592;51.402;6.054;2023-03-24T18:07:50;12.51;71.67
65989;HTU21D;53592;51.402;6.054;2023-03-24T18:10:16;12.48;71.73
65989;HTU21D;53592;51.402;6.054;2023-03-24T18:12:41;12.49;71.93
65989;HTU21D;53592;51.402;6.054;2023-03-24T18:15:07;12.49;72.08
65989;HTU21D;53592;51.402;6.054;2023-03-24T18:17:33;12.53;72.13
65989;HTU21D;53592;51.402;6.054;2023-03-24T18:20:00;12.51;72.63
65989;HTU21D;53592;51.402;6.054;2023-03-24T18:22:34;12.51;73.13
65989;HTU21D;53592;51.402;6.054;2023-03-24T18:25:01;12.56;73.42
65989;HTU21D;53592;51.402;6.054;2023-03-24T18:27:28;12.50;73.94
65989;HTU21D;53592;51.402;6.054;2023-03-24T18:29:54;12.53;74.14
65989;HTU21D;53592;51.402;6.054;2023-03-24T18:32:20;12.56;74.12
65989;HTU21D;53592;51.402;6.054;2023-03-24T18:34:46;12.55;74.30
65989;HTU21D;53592;51.402;6.054;2023-03-24T18:37:11;12.51;74.34
65989;HTU21D;53592;51.402;6.054;2023-03-24T18:39:40;12.53;74.22
65989;HTU21D;53592;51.402;6.054;2023-03-24T18:42:06;12.49;74.49
65989;HTU21D;53592;51.402;6.054;2023-03-24T18:44:32;12.50;73.99
65989;HTU21D;53592;51.402;6.054;2023-03-24T18:46:57;12.52;73.85